Beech Grove, Texas
Current Conditions -  °F | °C
As of 5:15 PM on Tuesday 25 Nov 2014 (Local Time) from KJAS Reporting Station
Clear Clear  
Wind Chill: 52°   Ceiling: Unl
Heat Index: 52°   Visibility: 10mi
Dew Point: 40°   Wind: 0mph
Humidity: 64%   Direction: NA
Pressure: 30.25"   Gusts: NA
Location:  30.9529°N, 94.0707°W
Report Text: KJAS 252315Z AUTO 00000KT 10SM CLR 11/04 A3025 RMK AO2 T01090044
Loading
Personal Weather Stations






























Interactive Weather Map New forecast layout! Learn more

10-Day Weather Forecast

Advertisements
Track Severe Weather on mobile